KAOH/AOH METAR and TAF weather

Enter ICAO airport designator
Station Type Date Time Source
KAOH METAR 2020/03/29 11:53 UTC NOAA

KAOH 291153Z AUTO 22013G22KT 10SM FEW017 BKN032 BKN044 17/14 A2960 RMK AO2 SLP019 60000 70095 T01720144 10183 20161 53012


Station Type Date Time Source
KAOH Decoded METAR 2020/03/29 11:53 UTC NOAA

LIMA ALLEN COUNTY AIRPORT, OH, United States (KAOH) 40-42N 84-01W 296M
Mar 29, 2020 - 07:53 AM EDT / 2020.03.29 1153 UTC
Wind: from the SW (220 degrees) at 15 MPH (13 KT) gusting to 25 MPH (22 KT):0
Visibility: 10 mile(s):0
Sky conditions: mostly cloudy
Temperature: 63.0 F (17.2 C)
Dew Point: 57.9 F (14.4 C)
Relative Humidity: 83%
Pressure (altimeter): 29.6 in. Hg (1002 hPa)
Pressure tendency: 0.04 inches (1.2 hPa) higher than three hours ago
ob: KAOH 291153Z AUTO 22013G22KT 10SM FEW017 BKN032 BKN044 17/14 A2960 RMK AO2 SLP019 60000 70095 T01720144 10183 20161 53012
cycle: 12

Station Type Date Time Source
KAOH TAF UTC NOAA

Error!

Example: see airport list